createdAt,value
2022-08-28T00:00:25.696Z,90.75
2022-08-28T00:02:53.651Z,91.34
2022-08-28T00:05:22.605Z,91.16
2022-08-28T00:07:49.478Z,91.08
2022-08-28T00:10:19.461Z,90.66
2022-08-28T00:12:49.513Z,90.72
2022-08-28T00:15:22.061Z,91.15
2022-08-28T00:17:49.363Z,90.67
2022-08-28T00:20:18.774Z,90.84
2022-08-28T00:22:47.334Z,90.64
2022-08-28T00:25:15.097Z,90.54
2022-08-28T00:27:54.974Z,90.30
2022-08-28T00:30:42.051Z,90.09
2022-08-28T00:33:30.538Z,90.36
2022-08-28T00:35:58.112Z,91.03
2022-08-28T00:38:27.222Z,91.14
2022-08-28T00:40:58.394Z,90.04
2022-08-28T00:43:49.245Z,90.51
2022-08-28T00:46:23.299Z,90.46
2022-08-28T00:48:50.741Z,90.66
2022-08-28T00:51:37.965Z,90.98
2022-08-28T00:54:07.859Z,91.82
2022-08-28T00:56:36.057Z,91.12
2022-08-28T00:59:09.002Z,90.93
2022-08-28T01:01:38.763Z,91.72
2022-08-28T01:04:06.414Z,90.56
2022-08-28T01:06:36.620Z,91.04
2022-08-28T01:09:04.786Z,90.45
2022-08-28T01:11:31.807Z,90.34
2022-08-28T01:14:01.963Z,91.08
2022-08-28T01:16:33.061Z,91.05
2022-08-28T01:19:03.491Z,90.77
2022-08-28T01:21:42.948Z,90.20
2022-08-28T01:24:14.985Z,90.64
2022-08-28T01:26:43.391Z,90.21
2022-08-28T01:29:11.980Z,90.47
2022-08-28T01:31:40.896Z,89.14
2022-08-28T01:34:10.004Z,89.42
2022-08-28T01:36:36.998Z,89.52
2022-08-28T01:39:16.974Z,89.68
2022-08-28T01:41:46.911Z,89.93
2022-08-28T01:44:15.282Z,90.25
2022-08-28T01:46:45.434Z,91.05
2022-08-28T01:49:12.483Z,91.22
2022-08-28T01:51:41.276Z,89.75
2022-08-28T01:54:09.850Z,89.95
2022-08-28T01:56:37.831Z,90.49
2022-08-28T01:59:07.960Z,89.93
2022-08-28T02:01:35.112Z,90.58
2022-08-28T02:04:04.421Z,89.84
2022-08-28T02:06:31.767Z,89.40
2022-08-28T02:08:59.529Z,89.79
2022-08-28T02:11:29.367Z,89.27
2022-08-28T02:13:56.557Z,89.38
2022-08-28T02:16:23.374Z,89.85
2022-08-28T02:18:50.146Z,89.10
2022-08-28T02:21:17.301Z,90.36
2022-08-28T02:23:45.269Z,90.60
2022-08-28T02:26:13.630Z,89.91
2022-08-28T02:28:41.255Z,88.99
2022-08-28T02:31:09.522Z,89.23
2022-08-28T02:33:41.997Z,90.82
2022-08-28T02:36:10.062Z,90.04
2022-08-28T02:38:37.558Z,89.51
2022-08-28T02:41:05.586Z,89.45
2022-08-28T02:43:32.643Z,90.10
2022-08-28T02:45:59.517Z,90.09
2022-08-28T02:48:31.979Z,90.43
2022-08-28T02:51:04.028Z,90.29
2022-08-28T02:53:31.393Z,90.87
2022-08-28T02:55:59.214Z,90.73
2022-08-28T02:58:27.310Z,90.48
2022-08-28T03:00:55.174Z,89.60
2022-08-28T03:03:22.255Z,89.13
2022-08-28T03:05:49.850Z,88.58
2022-08-28T03:08:16.744Z,88.51
2022-08-28T03:10:43.473Z,88.46
2022-08-28T03:13:11.263Z,88.65
2022-08-28T03:15:52.020Z,88.38
2022-08-28T03:18:24.477Z,89.05
2022-08-28T03:20:52.667Z,89.42
2022-08-28T03:23:28.706Z,88.78
2022-08-28T03:26:04.949Z,88.74
2022-08-28T03:28:41.284Z,89.05
2022-08-28T03:31:10.700Z,88.98
2022-08-28T03:33:37.893Z,88.88
2022-08-28T03:37:02.003Z,88.65
2022-08-28T03:39:43.081Z,88.92
2022-08-28T03:43:34.671Z,88.46
2022-08-28T03:46:41.478Z,88.00
2022-08-28T03:49:08.305Z,88.11
2022-08-28T03:51:35.353Z,87.31
2022-08-28T03:54:05.389Z,87.36
2022-08-28T03:56:32.421Z,87.23
2022-08-28T03:59:01.582Z,88.23
2022-08-28T04:01:28.873Z,88.05
2022-08-28T04:03:56.191Z,87.99
2022-08-28T04:06:23.509Z,87.73
2022-08-28T04:08:51.153Z,87.82
2022-08-28T04:11:18.594Z,87.54
2022-08-28T04:13:45.554Z,87.69
2022-08-28T04:16:17.986Z,87.21
2022-08-28T04:18:46.852Z,87.48
2022-08-28T04:21:18.146Z,87.37
2022-08-28T04:23:46.150Z,87.23
2022-08-28T04:26:16.212Z,87.92
2022-08-28T04:28:43.897Z,88.05
2022-08-28T04:31:11.164Z,87.83
2022-08-28T04:33:38.476Z,88.10
2022-08-28T04:36:11.907Z,88.24
2022-08-28T04:38:43.641Z,87.37
2022-08-28T04:41:13.166Z,87.20
2022-08-28T04:43:40.213Z,86.87
2022-08-28T04:46:11.477Z,87.03
2022-08-28T04:48:38.884Z,87.27
2022-08-28T04:51:09.437Z,86.78
2022-08-28T04:53:37.823Z,86.50
2022-08-28T04:56:07.491Z,86.27
2022-08-28T04:58:35.202Z,86.76
2022-08-28T05:01:24.418Z,86.90
2022-08-28T05:03:54.984Z,87.22
2022-08-28T05:06:22.872Z,87.43
2022-08-28T05:08:49.777Z,87.38
2022-08-28T05:11:34.441Z,87.71
2022-08-28T05:14:08.933Z,87.41
2022-08-28T05:16:49.739Z,87.68
2022-08-28T05:19:18.958Z,87.11
2022-08-28T05:21:46.149Z,87.45
2022-08-28T05:24:13.959Z,86.75
2022-08-28T05:26:41.371Z,86.98
2022-08-28T05:29:10.058Z,87.08
2022-08-28T05:31:39.230Z,87.26
2022-08-28T05:34:07.100Z,86.99
2022-08-28T05:36:36.301Z,87.36
2022-08-28T05:39:06.926Z,87.31
2022-08-28T05:41:35.051Z,87.40
2022-08-28T05:44:08.454Z,87.08
2022-08-28T05:46:38.119Z,87.51
2022-08-28T05:49:09.663Z,87.36
2022-08-28T05:51:39.299Z,87.43
2022-08-28T05:54:06.118Z,87.26
2022-08-28T05:56:38.627Z,87.09
2022-08-28T05:59:06.844Z,86.52
2022-08-28T06:01:39.073Z,86.98
2022-08-28T06:04:15.432Z,86.64
2022-08-28T06:06:42.748Z,86.86
2022-08-28T06:09:16.470Z,86.78
2022-08-28T06:11:46.220Z,86.37
2022-08-28T06:14:17.471Z,85.72
2022-08-28T06:16:47.869Z,85.05
2022-08-28T06:19:16.967Z,84.74
2022-08-28T06:21:43.984Z,84.42
2022-08-28T06:24:12.162Z,84.44
2022-08-28T06:26:39.186Z,84.11
2022-08-28T06:29:09.725Z,84.62
2022-08-28T06:31:37.215Z,84.03
2022-08-28T06:34:04.847Z,83.58
2022-08-28T06:36:34.985Z,84.42
2022-08-28T06:39:04.895Z,83.91
2022-08-28T06:41:33.375Z,84.03
2022-08-28T06:44:00.379Z,84.02
2022-08-28T06:46:29.022Z,83.67
2022-08-28T06:48:55.881Z,83.95
2022-08-28T06:51:23.151Z,83.68
2022-08-28T06:53:52.557Z,82.79
2022-08-28T06:56:25.907Z,82.80
2022-08-28T06:58:56.754Z,81.64
2022-08-28T07:01:27.018Z,81.69
2022-08-28T07:03:55.765Z,81.70
2022-08-28T07:06:23.409Z,81.28
2022-08-28T07:08:51.137Z,81.06
2022-08-28T07:11:21.945Z,80.55
2022-08-28T07:13:53.915Z,80.33
2022-08-28T07:16:23.750Z,80.51
2022-08-28T07:18:50.653Z,79.04
2022-08-28T07:21:17.502Z,80.40
2022-08-28T07:23:45.114Z,81.19
2022-08-28T07:26:15.709Z,79.81
2022-08-28T07:29:10.159Z,79.16
2022-08-28T07:31:44.354Z,79.89
2022-08-28T07:34:13.912Z,79.11
2022-08-28T07:36:41.587Z,77.36
2022-08-28T07:39:10.594Z,78.31
2022-08-28T07:41:40.269Z,78.74
2022-08-28T07:44:27.169Z,77.90
2022-08-28T07:46:59.725Z,77.62
2022-08-28T07:49:26.742Z,77.90
2022-08-28T07:51:53.967Z,80.28
2022-08-28T07:54:22.097Z,78.16
2022-08-28T07:56:49.311Z,78.01
2022-08-28T07:59:19.194Z,76.49
2022-08-28T08:01:48.126Z,76.55
2022-08-28T08:04:17.276Z,77.05
2022-08-28T08:06:45.007Z,77.20
2022-08-28T08:09:14.407Z,76.91
2022-08-28T08:11:42.163Z,77.96
2022-08-28T08:14:08.991Z,77.94
2022-08-28T08:16:39.780Z,75.66
2022-08-28T08:19:10.121Z,75.24
2022-08-28T08:21:38.025Z,75.52
2022-08-28T08:24:05.039Z,75.32
2022-08-28T08:26:33.129Z,72.58
2022-08-28T08:29:00.426Z,72.17
2022-08-28T08:31:30.239Z,74.48
2022-08-28T08:34:01.871Z,74.48
2022-08-28T08:36:30.429Z,73.64
2022-08-28T08:39:00.319Z,73.98
2022-08-28T08:41:30.354Z,72.51
2022-08-28T08:44:06.422Z,69.93
2022-08-28T08:46:41.136Z,69.99
2022-08-28T08:49:16.151Z,69.84
2022-08-28T08:51:47.935Z,69.89
2022-08-28T08:54:19.699Z,71.66
2022-08-28T08:56:47.466Z,70.06
2022-08-28T08:59:23.660Z,69.83
2022-08-28T09:02:12.687Z,70.29
2022-08-28T09:05:01.905Z,69.43
2022-08-28T09:07:56.644Z,70.59
2022-08-28T09:10:30.364Z,71.23
2022-08-28T09:13:10.768Z,70.57
2022-08-28T09:15:41.360Z,68.60
2022-08-28T09:18:34.160Z,69.58
2022-08-28T09:21:01.306Z,71.65
2022-08-28T09:23:30.014Z,70.69
2022-08-28T09:25:57.024Z,70.51
2022-08-28T09:28:32.823Z,69.87
2022-08-28T09:31:04.529Z,69.21
2022-08-28T09:33:36.739Z,68.75
2022-08-28T09:36:28.008Z,69.53
2022-08-28T09:39:19.221Z,68.75
2022-08-28T09:42:12.622Z,65.99
2022-08-28T09:45:21.294Z,68.24
2022-08-28T09:47:58.506Z,68.62
2022-08-28T09:50:35.258Z,66.97
2022-08-28T09:53:13.764Z,65.55
2022-08-28T09:55:59.496Z,66.04
2022-08-28T09:58:42.770Z,65.06
2022-08-28T10:01:28.952Z,65.26
2022-08-28T10:04:15.285Z,64.76
2022-08-28T10:07:24.927Z,63.56
2022-08-28T10:10:10.226Z,63.25
2022-08-28T10:12:59.424Z,61.08
2022-08-28T10:15:32.587Z,58.66
2022-08-28T10:18:09.339Z,58.21
2022-08-28T10:20:42.194Z,58.36
2022-08-28T10:23:59.812Z,57.18
2022-08-28T10:26:34.808Z,56.59
2022-08-28T10:29:16.801Z,54.97
2022-08-28T10:31:49.730Z,55.17
2022-08-28T10:34:34.631Z,54.94
2022-08-28T10:37:39.171Z,55.22
2022-08-28T10:40:13.940Z,56.71
2022-08-28T10:42:50.971Z,54.54
2022-08-28T10:45:24.322Z,56.19
2022-08-28T10:47:58.120Z,56.53
2022-08-28T10:50:42.598Z,50.76
2022-08-28T10:53:17.106Z,52.81
2022-08-28T10:55:53.018Z,55.55
2022-08-28T10:58:24.900Z,57.35
2022-08-28T11:01:01.280Z,57.23
2022-08-28T11:03:34.889Z,55.38
2022-08-28T11:06:11.381Z,56.78
2022-08-28T11:08:39.932Z,58.08
2022-08-28T11:11:15.122Z,57.65
2022-08-28T11:14:02.339Z,58.11
2022-08-28T11:16:30.310Z,56.48
2022-08-28T11:19:34.930Z,57.91
2022-08-28T11:22:16.935Z,56.28
2022-08-28T11:25:06.517Z,55.37
2022-08-28T11:27:38.484Z,57.13
2022-08-28T11:30:05.138Z,57.31
2022-08-28T11:32:31.875Z,54.47
2022-08-28T11:35:26.015Z,56.59
2022-08-28T11:37:54.930Z,56.92
2022-08-28T11:40:30.439Z,58.12
2022-08-28T11:43:15.854Z,57.64
2022-08-28T11:45:59.287Z,58.79
2022-08-28T11:49:19.562Z,58.74
2022-08-28T11:53:21.643Z,58.44
2022-08-28T12:00:25.525Z,60.52
2022-08-28T12:03:03.143Z,61.87
2022-08-28T12:05:33.322Z,61.23
2022-08-28T12:08:02.635Z,60.03
2022-08-28T12:10:30.708Z,63.85
2022-08-28T12:13:03.992Z,62.81
2022-08-28T12:15:31.207Z,61.82
2022-08-28T12:18:04.977Z,63.33
2022-08-28T12:20:50.179Z,62.94
2022-08-28T12:23:36.795Z,65.42
2022-08-28T12:26:06.812Z,67.02
2022-08-28T12:28:39.472Z,66.35
2022-08-28T12:31:08.937Z,66.67
2022-08-28T12:33:51.986Z,65.61
2022-08-28T12:36:26.673Z,66.12
2022-08-28T12:38:55.509Z,66.10
2022-08-28T12:41:26.727Z,64.56
2022-08-28T12:43:57.364Z,66.16
2022-08-28T12:46:37.611Z,65.43
2022-08-28T12:49:25.928Z,66.57
2022-08-28T12:52:18.117Z,66.58
2022-08-28T12:54:46.826Z,65.36
2022-08-28T12:57:17.719Z,66.73
2022-08-28T12:59:47.559Z,66.25
2022-08-28T13:02:36.114Z,68.41
2022-08-28T13:05:07.165Z,69.59
2022-08-28T13:07:41.148Z,67.92
2022-08-28T13:10:26.679Z,69.30
2022-08-28T13:13:06.929Z,70.97
2022-08-28T13:15:46.090Z,70.19
2022-08-28T13:18:34.558Z,69.97
2022-08-28T13:21:17.807Z,69.54
2022-08-28T13:24:21.179Z,71.05
2022-08-28T13:26:50.742Z,71.28
2022-08-28T13:29:24.397Z,70.34
2022-08-28T13:32:01.173Z,70.70
2022-08-28T13:34:30.704Z,71.48
2022-08-28T13:37:04.156Z,71.61
2022-08-28T13:39:36.196Z,71.28
2022-08-28T13:42:21.075Z,71.33
2022-08-28T13:44:52.810Z,71.03
2022-08-28T13:47:20.017Z,72.19
2022-08-28T13:49:47.144Z,72.61
2022-08-28T13:52:14.110Z,72.50
2022-08-28T13:54:43.490Z,72.13
2022-08-28T13:57:10.937Z,72.04
2022-08-28T13:59:37.656Z,72.29
2022-08-28T14:02:27.053Z,72.76
2022-08-28T14:04:53.858Z,73.01
2022-08-28T14:07:20.719Z,73.08
2022-08-28T14:09:47.494Z,73.28
2022-08-28T14:12:14.505Z,73.51
2022-08-28T14:14:41.506Z,72.51
2022-08-28T14:17:09.826Z,72.21
2022-08-28T14:19:37.307Z,73.66
2022-08-28T14:22:04.418Z,73.85
2022-08-28T14:24:32.022Z,74.39
2022-08-28T14:26:59.683Z,74.03
2022-08-28T14:29:26.541Z,73.08
2022-08-28T14:31:54.160Z,74.29
2022-08-28T14:34:22.667Z,74.88
2022-08-28T14:36:51.065Z,74.90
2022-08-28T14:39:18.184Z,74.26
2022-08-28T14:41:46.901Z,74.38
2022-08-28T14:44:13.882Z,74.28
2022-08-28T14:46:43.720Z,74.44
2022-08-28T14:49:13.369Z,74.47
2022-08-28T14:51:42.418Z,74.01
2022-08-28T14:54:13.226Z,74.29
2022-08-28T14:56:41.671Z,73.89
2022-08-28T14:59:13.564Z,73.56
2022-08-28T15:01:43.153Z,74.35
2022-08-28T15:04:13.592Z,74.33
2022-08-28T15:06:42.554Z,73.70
2022-08-28T15:09:11.561Z,74.42
2022-08-28T15:11:39.255Z,75.33
2022-08-28T15:14:06.606Z,74.61
2022-08-28T15:16:39.217Z,73.76
2022-08-28T15:19:11.645Z,74.11
2022-08-28T15:21:59.616Z,73.73
2022-08-28T15:24:30.813Z,74.32
2022-08-28T15:26:59.734Z,74.51
2022-08-28T15:29:29.423Z,73.66
2022-08-28T15:31:57.338Z,74.71
2022-08-28T15:34:26.984Z,75.20
2022-08-28T15:36:56.045Z,75.30
2022-08-28T15:39:47.063Z,74.99
2022-08-28T15:42:14.808Z,75.08
2022-08-28T15:44:42.150Z,75.29
2022-08-28T15:47:09.415Z,75.35
2022-08-28T15:49:43.472Z,75.84
2022-08-28T15:52:15.544Z,75.62
2022-08-28T15:54:42.929Z,75.94
2022-08-28T15:57:09.863Z,76.04
2022-08-28T15:59:40.041Z,75.05
2022-08-28T16:02:16.628Z,75.24
2022-08-28T16:04:43.453Z,74.59
2022-08-28T16:07:10.729Z,75.49
2022-08-28T16:09:37.486Z,75.65
2022-08-28T16:12:04.958Z,75.09
2022-08-28T16:14:32.871Z,75.65
2022-08-28T16:17:00.010Z,76.01
2022-08-28T16:19:32.974Z,75.88
2022-08-28T16:22:00.330Z,75.87
2022-08-28T16:24:27.191Z,76.12
2022-08-28T16:26:54.133Z,75.87
2022-08-28T16:29:21.060Z,76.55
2022-08-28T16:31:48.889Z,77.28
2022-08-28T16:34:15.973Z,76.39
2022-08-28T16:36:48.345Z,76.75
2022-08-28T16:39:15.303Z,76.25
2022-08-28T16:41:43.246Z,76.86
2022-08-28T16:44:10.028Z,76.40
2022-08-28T16:46:36.977Z,76.63
2022-08-28T16:49:03.909Z,75.92
2022-08-28T16:51:30.788Z,75.95
2022-08-28T16:53:58.174Z,75.67
2022-08-28T16:56:25.327Z,75.94
2022-08-28T16:58:52.934Z,76.54
2022-08-28T17:01:24.212Z,77.58
2022-08-28T17:03:55.266Z,76.84
2022-08-28T17:06:24.946Z,77.23
2022-08-28T17:08:56.450Z,77.01
2022-08-28T17:11:25.951Z,76.62
2022-08-28T17:13:52.978Z,75.90
2022-08-28T17:16:20.612Z,77.24
2022-08-28T17:18:48.234Z,77.09
2022-08-28T17:21:38.129Z,77.49
2022-08-28T17:24:05.212Z,77.31
2022-08-28T17:26:31.932Z,77.08
2022-08-28T17:28:58.725Z,77.36
2022-08-28T17:31:25.522Z,76.15
2022-08-28T17:33:52.518Z,75.96
2022-08-28T17:36:32.441Z,76.49
2022-08-28T17:39:01.599Z,77.11
2022-08-28T17:41:28.618Z,76.34
2022-08-28T17:43:55.528Z,75.54
2022-08-28T17:46:22.678Z,75.85
2022-08-28T17:48:55.475Z,76.49
2022-08-28T17:51:43.026Z,76.76
2022-08-28T17:54:21.419Z,75.29
2022-08-28T17:56:49.557Z,76.87
2022-08-28T17:59:16.474Z,77.08
2022-08-28T18:01:45.239Z,77.24
2022-08-28T18:04:13.003Z,77.50
2022-08-28T18:06:40.398Z,77.45
2022-08-28T18:09:08.840Z,77.44
2022-08-28T18:11:36.536Z,77.90
2022-08-28T18:14:04.436Z,78.01
2022-08-28T18:16:32.848Z,78.00
2022-08-28T18:19:00.815Z,78.25
2022-08-28T18:21:28.247Z,78.49
2022-08-28T18:23:55.033Z,78.37
2022-08-28T18:26:21.947Z,77.90
2022-08-28T18:28:49.142Z,77.69
2022-08-28T18:31:16.047Z,77.83
2022-08-28T18:33:42.938Z,78.18
2022-08-28T18:36:12.843Z,78.94
2022-08-28T18:38:40.310Z,78.95
2022-08-28T18:41:09.007Z,78.78
2022-08-28T18:43:36.627Z,78.82
2022-08-28T18:46:05.684Z,78.62
2022-08-28T18:48:32.648Z,78.84
2022-08-28T18:50:59.424Z,79.20
2022-08-28T18:53:28.065Z,79.52
2022-08-28T18:55:56.123Z,79.62
2022-08-28T18:58:27.416Z,79.86
2022-08-28T19:00:54.671Z,79.36
2022-08-28T19:03:22.706Z,79.78
2022-08-28T19:05:49.666Z,79.78
2022-08-28T19:08:16.807Z,80.41
2022-08-28T19:10:43.616Z,80.48
2022-08-28T19:13:10.507Z,80.59
2022-08-28T19:15:37.471Z,80.51
2022-08-28T19:18:05.453Z,81.08
2022-08-28T19:20:33.139Z,80.86
2022-08-28T19:23:00.641Z,80.68
2022-08-28T19:25:35.058Z,80.77
2022-08-28T19:28:02.815Z,80.58
2022-08-28T19:30:33.015Z,80.55
2022-08-28T19:33:02.426Z,80.43
2022-08-28T19:35:29.480Z,80.05
2022-08-28T19:37:56.490Z,79.96
2022-08-28T19:40:23.614Z,80.06
2022-08-28T19:42:53.468Z,79.46
2022-08-28T19:45:22.109Z,79.61
2022-08-28T19:47:49.099Z,79.38
2022-08-28T19:50:16.573Z,78.98
2022-08-28T19:52:44.238Z,79.38
2022-08-28T19:55:24.401Z,79.52
2022-08-28T19:57:51.310Z,79.27
2022-08-28T20:00:21.019Z,79.20
2022-08-28T20:02:49.403Z,79.27
2022-08-28T20:05:16.260Z,79.46
2022-08-28T20:07:45.594Z,79.77
2022-08-28T20:10:12.895Z,80.11
2022-08-28T20:12:40.310Z,78.23
2022-08-28T20:15:17.562Z,77.07
2022-08-28T20:17:49.967Z,78.87
2022-08-28T20:20:23.056Z,79.56
2022-08-28T20:22:54.061Z,79.37
2022-08-28T20:25:21.800Z,79.75
2022-08-28T20:27:48.613Z,80.25
2022-08-28T20:30:15.408Z,80.70
2022-08-28T20:32:42.344Z,80.37
2022-08-28T20:35:11.940Z,80.26
2022-08-28T20:37:44.663Z,79.76
2022-08-28T20:40:18.762Z,79.82
2022-08-28T20:42:46.589Z,79.37
2022-08-28T20:45:15.210Z,79.46
2022-08-28T20:47:42.471Z,79.56
2022-08-28T20:50:09.922Z,79.59
2022-08-28T20:52:37.236Z,78.69
2022-08-28T20:55:05.454Z,79.34
2022-08-28T20:57:32.191Z,80.12
2022-08-28T21:00:04.776Z,80.44
2022-08-28T21:02:33.211Z,79.25
2022-08-28T21:05:00.866Z,79.42
2022-08-28T21:07:28.459Z,79.37
2022-08-28T21:10:05.204Z,79.17
2022-08-28T21:12:36.346Z,79.58
2022-08-28T21:15:04.159Z,79.83
2022-08-28T21:17:31.130Z,79.48
2022-08-28T21:20:05.644Z,79.90
2022-08-28T21:22:35.161Z,79.69
2022-08-28T21:25:04.564Z,79.88
2022-08-28T21:27:31.425Z,79.19
2022-08-28T21:30:02.063Z,79.03
2022-08-28T21:32:31.132Z,79.05
2022-08-28T21:34:58.474Z,78.23
2022-08-28T21:37:25.243Z,78.40
2022-08-28T21:39:56.243Z,76.88
2022-08-28T21:42:23.401Z,77.55
2022-08-28T21:44:51.891Z,77.39
2022-08-28T21:47:21.588Z,76.74
2022-08-28T21:49:50.201Z,77.36
2022-08-28T21:52:18.892Z,77.34
2022-08-28T21:54:45.776Z,77.31
2022-08-28T21:57:12.722Z,77.63
2022-08-28T21:59:39.567Z,77.29
2022-08-28T22:02:07.064Z,76.94
2022-08-28T22:04:34.782Z,77.25
2022-08-28T22:07:01.835Z,75.97
2022-08-28T22:09:29.106Z,76.34
2022-08-28T22:11:55.885Z,77.00
2022-08-28T22:14:25.200Z,76.70
2022-08-28T22:16:52.252Z,77.05
2022-08-28T22:19:19.156Z,76.77
2022-08-28T22:22:04.509Z,77.10
2022-08-28T22:24:31.337Z,76.65
2022-08-28T22:26:58.112Z,76.95
2022-08-28T22:29:25.275Z,76.71
2022-08-28T22:31:52.728Z,76.57
2022-08-28T22:34:19.963Z,76.55
2022-08-28T22:36:47.103Z,76.81
2022-08-28T22:39:13.847Z,76.91
2022-08-28T22:41:42.230Z,77.36
2022-08-28T22:44:09.964Z,77.21
2022-08-28T22:46:37.014Z,76.57
2022-08-28T22:49:05.046Z,76.52
2022-08-28T22:51:34.871Z,76.19
2022-08-28T22:54:02.167Z,76.40
2022-08-28T22:56:29.240Z,76.15
2022-08-28T22:58:56.165Z,76.18
2022-08-28T23:01:25.752Z,76.02
2022-08-28T23:03:53.036Z,76.27
2022-08-28T23:06:21.636Z,76.29
2022-08-28T23:08:48.470Z,76.72
2022-08-28T23:11:15.483Z,76.49
2022-08-28T23:13:42.241Z,76.08
2022-08-28T23:16:09.671Z,75.75
2022-08-28T23:19:06.808Z,76.33
2022-08-28T23:21:26.246Z,76.89
2022-08-28T23:23:53.380Z,76.87
2022-08-28T23:26:22.190Z,76.72
2022-08-28T23:28:49.096Z,76.75
2022-08-28T23:31:16.197Z,77.27
2022-08-28T23:33:43.091Z,76.55
2022-08-28T23:36:10.517Z,77.40
2022-08-28T23:38:40.672Z,77.39
2022-08-28T23:41:11.263Z,77.49
2022-08-28T23:43:38.253Z,77.16
2022-08-28T23:46:06.539Z,76.00
2022-08-28T23:48:33.946Z,76.19
2022-08-28T23:51:02.664Z,76.46
2022-08-28T23:53:29.558Z,76.60
2022-08-28T23:55:57.522Z,75.88
2022-08-28T23:58:31.690Z,76.28
